createdAt,value
2022-09-21T00:01:09.434Z,4.65
2022-09-21T00:03:37.766Z,5.72
2022-09-21T00:06:08.860Z,4.80
2022-09-21T00:08:37.034Z,3.47
2022-09-21T00:11:05.788Z,8.35
2022-09-21T00:13:35.083Z,4.78
2022-09-21T00:16:07.087Z,5.78
2022-09-21T00:18:36.192Z,3.22
2022-09-21T00:21:10.008Z,3.63
2022-09-21T00:23:38.216Z,5.40
2022-09-21T00:26:08.563Z,4.28
2022-09-21T00:28:36.697Z,4.03
2022-09-21T00:31:05.738Z,5.30
2022-09-21T00:33:34.009Z,10.10
2022-09-21T00:36:06.049Z,5.03
2022-09-21T00:38:36.422Z,4.35
2022-09-21T00:41:05.581Z,6.28
2022-09-21T00:43:35.808Z,4.55
2022-09-21T00:46:06.548Z,4.85
2022-09-21T00:48:35.169Z,5.40
2022-09-21T00:51:06.222Z,3.55
2022-09-21T00:53:35.894Z,5.30
2022-09-21T00:56:04.192Z,4.20
2022-09-21T00:58:38.199Z,4.15
2022-09-21T01:01:06.205Z,5.70
2022-09-21T01:03:34.392Z,4.32
2022-09-21T01:06:02.415Z,3.78
2022-09-21T01:08:30.811Z,5.70
2022-09-21T01:11:20.365Z,5.07
2022-09-21T01:13:59.792Z,4.63
2022-09-21T01:16:33.134Z,6.20
2022-09-21T01:19:12.952Z,4.05
2022-09-21T01:21:53.089Z,4.15
2022-09-21T01:24:50.359Z,6.75
2022-09-21T01:27:52.654Z,5.25
2022-09-21T01:30:23.691Z,4.35
2022-09-21T01:32:59.265Z,3.65
2022-09-21T01:35:32.147Z,4.57
2022-09-21T01:38:04.240Z,7.13
2022-09-21T01:40:36.034Z,5.97
2022-09-21T01:43:06.435Z,2.60
2022-09-21T01:45:40.322Z,2.72
2022-09-21T01:48:09.189Z,3.25
2022-09-21T01:50:41.398Z,3.85
2022-09-21T01:53:13.959Z,4.68
2022-09-21T01:55:46.845Z,4.15
2022-09-21T01:58:20.285Z,4.38
2022-09-21T02:00:53.818Z,3.65
2022-09-21T02:03:26.139Z,3.53
2022-09-21T02:05:54.796Z,4.82
2022-09-21T02:08:22.832Z,4.88
2022-09-21T02:10:52.615Z,4.53
2022-09-21T02:13:25.380Z,3.58
2022-09-21T02:16:10.816Z,4.43
2022-09-21T02:18:48.446Z,4.38
2022-09-21T02:21:25.553Z,5.00
2022-09-21T02:24:04.124Z,4.75
2022-09-21T02:26:37.372Z,3.80
2022-09-21T02:29:17.227Z,4.05
2022-09-21T02:31:53.530Z,4.18
2022-09-21T02:34:29.569Z,3.15
2022-09-21T02:37:04.131Z,3.60
2022-09-21T02:39:36.293Z,4.15
2022-09-21T02:42:11.049Z,3.30
2022-09-21T02:44:43.727Z,4.43
2022-09-21T02:47:18.864Z,5.78
2022-09-21T02:49:51.361Z,6.18
2022-09-21T02:52:20.648Z,4.38
2022-09-21T02:54:51.504Z,5.95
2022-09-21T02:57:21.591Z,5.78
2022-09-21T02:59:49.963Z,4.50
2022-09-21T03:02:19.137Z,5.88
2022-09-21T03:04:50.014Z,5.78
2022-09-21T03:07:18.342Z,5.13
2022-09-21T03:09:46.599Z,7.30
2022-09-21T03:12:14.548Z,7.00
2022-09-21T03:14:42.602Z,6.65
2022-09-21T03:17:10.428Z,6.40
2022-09-21T03:19:39.634Z,5.35
2022-09-21T03:22:07.556Z,8.93
2022-09-21T03:24:47.553Z,7.68
2022-09-21T03:27:16.190Z,7.80
2022-09-21T03:29:44.339Z,5.20
2022-09-21T03:32:13.886Z,6.25
2022-09-21T03:34:43.511Z,6.38
2022-09-21T03:37:12.533Z,6.18
2022-09-21T03:39:40.309Z,6.82
2022-09-21T03:42:09.945Z,6.13
2022-09-21T03:44:38.325Z,7.13
2022-09-21T03:47:06.724Z,7.57
2022-09-21T03:49:35.048Z,6.80
2022-09-21T03:52:04.699Z,5.18
2022-09-21T03:54:32.501Z,5.43
2022-09-21T03:57:00.394Z,10.65
2022-09-21T03:59:28.211Z,5.45
2022-09-21T04:01:56.004Z,5.10
2022-09-21T04:04:23.955Z,6.32
2022-09-21T04:06:52.020Z,5.53
2022-09-21T04:09:21.197Z,11.23
2022-09-21T04:11:49.220Z,6.00
2022-09-21T04:14:17.654Z,7.78
2022-09-21T04:16:45.509Z,6.15
2022-09-21T04:19:13.573Z,6.90
2022-09-21T04:21:41.389Z,6.32
2022-09-21T04:24:09.256Z,5.93
2022-09-21T04:26:40.786Z,5.50
2022-09-21T04:29:08.639Z,8.52
2022-09-21T04:31:36.620Z,9.50
2022-09-21T04:34:04.834Z,7.30
2022-09-21T04:36:36.473Z,6.38
2022-09-21T04:39:05.304Z,16.40
2022-09-21T04:41:33.181Z,8.57
2022-09-21T04:44:02.895Z,10.50
2022-09-21T04:46:30.891Z,9.52
2022-09-21T04:48:58.841Z,8.27
2022-09-21T04:51:27.006Z,27.15
2022-09-21T04:53:54.866Z,12.45
2022-09-21T04:56:22.792Z,10.18
2022-09-21T04:58:50.671Z,8.02
2022-09-21T05:01:19.981Z,5.70
2022-09-21T05:03:48.040Z,6.72
2022-09-21T05:06:16.129Z,11.48
2022-09-21T05:09:01.839Z,6.95
2022-09-21T05:11:29.982Z,6.72
2022-09-21T05:13:57.907Z,8.73
2022-09-21T05:16:27.145Z,8.05
2022-09-21T05:18:55.873Z,6.30
2022-09-21T05:21:24.066Z,7.75
2022-09-21T05:23:52.399Z,11.20
2022-09-21T05:26:20.318Z,8.15
2022-09-21T05:28:48.699Z,8.70
2022-09-21T05:31:46.873Z,9.57
2022-09-21T05:34:31.890Z,9.73
2022-09-21T05:37:08.615Z,11.98
2022-09-21T05:39:37.360Z,8.50
2022-09-21T05:42:06.463Z,9.15
2022-09-21T05:44:34.733Z,9.07
2022-09-21T05:47:15.473Z,9.15
2022-09-21T05:49:51.282Z,8.00
2022-09-21T05:52:26.587Z,9.80
2022-09-21T05:55:03.983Z,7.80
2022-09-21T05:57:42.169Z,8.60
2022-09-21T06:00:17.336Z,7.70
2022-09-21T06:03:05.787Z,10.05
2022-09-21T06:05:33.798Z,8.85
2022-09-21T06:08:01.739Z,9.18
2022-09-21T06:10:34.706Z,10.55
2022-09-21T06:13:02.760Z,10.45
2022-09-21T06:15:30.772Z,7.35
2022-09-21T06:18:00.278Z,10.25
2022-09-21T06:20:28.249Z,10.68
2022-09-21T06:23:01.857Z,8.27
2022-09-21T06:25:29.764Z,12.10
2022-09-21T06:28:02.308Z,11.85
2022-09-21T06:30:30.177Z,11.85
2022-09-21T06:33:02.507Z,10.68
2022-09-21T06:35:31.541Z,11.98
2022-09-21T06:38:00.444Z,13.40
2022-09-21T06:40:28.809Z,9.27
2022-09-21T06:42:58.285Z,9.35
2022-09-21T06:45:26.417Z,11.52
2022-09-21T06:47:54.591Z,12.75
2022-09-21T06:50:24.364Z,12.98
2022-09-21T06:52:52.336Z,11.20
2022-09-21T06:55:20.402Z,13.38
2022-09-21T06:57:48.326Z,10.60
2022-09-21T07:00:16.825Z,14.05
2022-09-21T07:02:45.668Z,14.75
2022-09-21T07:05:14.004Z,12.15
2022-09-21T07:07:43.291Z,12.35
2022-09-21T07:10:15.909Z,12.40
2022-09-21T07:12:46.540Z,9.68
2022-09-21T07:15:15.472Z,12.18
2022-09-21T07:17:51.564Z,15.13
2022-09-21T07:20:20.183Z,13.45
2022-09-21T07:22:49.664Z,11.73
2022-09-21T07:25:17.949Z,12.55
2022-09-21T07:27:47.694Z,12.63
2022-09-21T07:30:15.544Z,21.55
2022-09-21T07:32:43.714Z,14.05
2022-09-21T07:35:12.030Z,14.60
2022-09-21T07:37:40.149Z,15.60
2022-09-21T07:40:10.573Z,14.73
2022-09-21T07:42:38.479Z,13.57
2022-09-21T07:45:07.533Z,13.25
2022-09-21T07:47:35.539Z,12.02
2022-09-21T07:50:03.391Z,15.82
2022-09-21T07:52:33.155Z,13.38
2022-09-21T07:55:01.120Z,11.13
2022-09-21T07:57:47.781Z,13.38
2022-09-21T08:00:16.201Z,13.82
2022-09-21T08:02:47.612Z,14.52
2022-09-21T08:05:16.197Z,11.07
2022-09-21T08:07:44.272Z,12.60
2022-09-21T08:10:12.607Z,12.40
2022-09-21T08:12:43.894Z,10.05
2022-09-21T08:15:30.619Z,14.18
2022-09-21T08:18:01.325Z,11.57
2022-09-21T08:20:29.479Z,8.38
2022-09-21T08:22:57.684Z,9.30
2022-09-21T09:09:27.778Z,5.30
2022-09-21T09:12:16.443Z,4.40
2022-09-21T09:15:01.759Z,5.15
2022-09-21T09:17:40.339Z,4.40
2022-09-21T09:20:14.660Z,3.63
2022-09-21T09:22:47.419Z,5.07
2022-09-21T09:25:21.767Z,4.28
2022-09-21T09:27:53.771Z,4.00
2022-09-21T09:30:23.176Z,3.80
2022-09-21T09:32:57.123Z,4.03
2022-09-21T09:35:30.137Z,4.13
2022-09-21T09:38:03.823Z,5.60
2022-09-21T09:40:50.268Z,4.05
2022-09-21T09:43:32.459Z,4.47
2022-09-21T09:46:11.920Z,5.60
2022-09-21T09:48:56.138Z,5.82
2022-09-21T09:51:23.959Z,3.70
2022-09-21T09:53:52.592Z,4.25
2022-09-21T09:56:21.727Z,3.85
2022-09-21T09:58:54.307Z,3.15
2022-09-21T10:01:40.644Z,3.00
2022-09-21T10:04:11.980Z,3.40
2022-09-21T10:06:45.821Z,4.45
2022-09-21T10:09:30.976Z,2.40
2022-09-21T10:12:06.810Z,4.00
2022-09-21T10:14:37.558Z,4.40
2022-09-21T10:17:08.595Z,3.90
2022-09-21T10:19:38.145Z,3.20
2022-09-21T10:22:06.804Z,6.47
2022-09-21T10:24:38.935Z,3.47
2022-09-21T10:27:14.376Z,4.13
2022-09-21T10:29:43.532Z,2.60
2022-09-21T10:32:22.499Z,4.85
2022-09-21T10:35:15.915Z,5.95
2022-09-21T10:37:46.377Z,4.57
2022-09-21T10:40:27.814Z,3.67
2022-09-21T10:42:59.883Z,5.70
2022-09-21T10:45:29.803Z,3.85
2022-09-21T10:47:59.879Z,3.85
2022-09-21T10:50:30.355Z,4.55
2022-09-21T10:53:01.948Z,4.55
2022-09-21T10:55:32.135Z,2.78
2022-09-21T10:58:01.691Z,3.40
2022-09-21T11:00:41.373Z,2.70
2022-09-21T11:03:39.330Z,4.78
2022-09-21T11:06:12.679Z,6.22
2022-09-21T11:08:46.410Z,7.40
2022-09-21T11:11:33.530Z,3.88
2022-09-21T11:14:11.613Z,6.88
2022-09-21T11:16:44.817Z,3.78
2022-09-21T11:19:22.152Z,3.28
2022-09-21T11:21:56.401Z,2.45
2022-09-21T11:24:33.246Z,2.58
2022-09-21T11:27:07.414Z,4.20
2022-09-21T11:29:43.195Z,2.00
2022-09-21T11:32:34.792Z,2.67
2022-09-21T11:35:24.254Z,2.20
2022-09-21T11:38:05.243Z,5.35
2022-09-21T11:40:54.467Z,2.75
2022-09-21T11:43:39.924Z,3.67
2022-09-21T11:46:19.248Z,2.90
2022-09-21T11:49:01.284Z,3.85
2022-09-21T11:51:40.023Z,4.40
2022-09-21T11:54:23.158Z,4.70
2022-09-21T11:56:57.016Z,3.35
2022-09-21T11:59:42.616Z,2.85
2022-09-21T12:02:32.179Z,2.35
2022-09-21T12:05:08.085Z,2.22
2022-09-21T12:07:54.133Z,4.35
2022-09-21T12:10:40.310Z,3.03
2022-09-21T12:13:21.530Z,4.97
2022-09-21T12:15:57.943Z,3.95
2022-09-21T12:18:32.546Z,3.08
2022-09-21T12:21:06.718Z,3.25
2022-09-21T12:23:41.512Z,2.75
2022-09-21T12:26:11.529Z,2.55
2022-09-21T12:28:42.923Z,2.38
2022-09-21T12:31:39.088Z,2.67
2022-09-21T12:34:17.012Z,2.47
2022-09-21T12:36:49.577Z,2.50
2022-09-21T12:39:24.567Z,3.38
2022-09-21T12:41:57.446Z,2.47
2022-09-21T12:44:33.682Z,2.85
2022-09-21T12:47:10.121Z,3.22
2022-09-21T12:49:50.328Z,3.33
2022-09-21T12:52:24.374Z,3.65
2022-09-21T12:54:58.313Z,2.55
2022-09-21T13:00:31.276Z,3.95
2022-09-21T13:03:10.533Z,2.72
2022-09-21T13:05:53.048Z,2.75
2022-09-21T13:08:27.740Z,3.67
2022-09-21T13:11:04.692Z,2.63
2022-09-21T13:13:36.327Z,5.65
2022-09-21T13:16:06.506Z,3.55
2022-09-21T13:18:36.813Z,3.10
2022-09-21T13:21:19.107Z,5.03
2022-09-21T13:23:53.824Z,3.20
2022-09-21T13:26:32.654Z,2.72
2022-09-21T13:29:04.748Z,2.53
2022-09-21T13:31:57.579Z,2.08
2022-09-21T13:34:36.776Z,3.95
2022-09-21T13:37:36.153Z,3.00
2022-09-21T13:40:34.970Z,3.95
2022-09-21T13:43:26.003Z,6.70
2022-09-21T13:45:59.471Z,3.97
2022-09-21T13:48:30.380Z,3.95
2022-09-21T13:51:01.687Z,3.53
2022-09-21T13:53:40.011Z,5.25
2022-09-21T13:56:10.977Z,4.18
2022-09-21T13:58:45.989Z,3.90
2022-09-21T14:01:42.435Z,6.07
2022-09-21T14:04:19.675Z,3.65
2022-09-21T14:06:51.318Z,2.75
2022-09-21T14:09:25.701Z,3.40
2022-09-21T14:12:00.251Z,3.30
2022-09-21T14:14:32.092Z,6.63
2022-09-21T14:17:01.242Z,4.82
2022-09-21T14:20:07.140Z,3.75
2022-09-21T14:22:40.578Z,3.80
2022-09-21T14:25:27.653Z,4.57
2022-09-21T14:28:00.863Z,4.28
2022-09-21T14:30:33.436Z,5.97
2022-09-21T14:33:13.761Z,5.20
2022-09-21T14:35:47.391Z,6.18
2022-09-21T14:38:20.770Z,6.30
2022-09-21T14:40:52.097Z,6.63
2022-09-21T14:43:25.274Z,4.55
2022-09-21T14:46:16.832Z,5.18
2022-09-21T14:48:55.359Z,4.10
2022-09-21T14:51:38.204Z,5.60
2022-09-21T14:54:26.448Z,4.00
2022-09-21T14:57:10.980Z,3.55
2022-09-21T14:59:52.904Z,9.13
2022-09-21T15:02:23.605Z,4.85
2022-09-21T15:05:01.982Z,4.20
2022-09-21T15:07:57.137Z,3.85
2022-09-21T15:10:54.986Z,8.20
2022-09-21T15:14:13.434Z,6.10
2022-09-21T15:16:43.997Z,12.85
2022-09-21T15:19:21.540Z,5.82
2022-09-21T15:21:51.278Z,9.93
2022-09-21T15:24:27.028Z,5.70
2022-09-21T15:27:03.641Z,5.10
2022-09-21T15:29:34.781Z,5.57
2022-09-21T15:32:04.065Z,4.88
2022-09-21T15:34:32.286Z,6.13
2022-09-21T15:37:16.574Z,5.10
2022-09-21T15:39:44.940Z,4.78
2022-09-21T15:42:20.282Z,7.93
2022-09-21T15:44:51.061Z,6.82
2022-09-21T15:47:23.023Z,5.40
2022-09-21T15:49:52.349Z,5.65
2022-09-21T15:52:28.373Z,6.38
2022-09-21T15:55:00.533Z,6.57
2022-09-21T15:57:39.000Z,3.55
2022-09-21T16:00:22.631Z,5.18
2022-09-21T16:02:57.243Z,4.85
2022-09-21T16:05:25.617Z,2.78
2022-09-21T16:08:06.363Z,3.30
2022-09-21T16:10:44.666Z,5.20
2022-09-21T16:13:36.178Z,2.85
2022-09-21T16:16:07.658Z,4.40
2022-09-21T16:18:48.092Z,2.30
2022-09-21T16:21:23.739Z,5.10
2022-09-21T16:23:55.579Z,3.05
2022-09-21T16:26:27.001Z,3.67
2022-09-21T16:29:16.849Z,3.08
2022-09-21T16:31:50.171Z,5.13
2022-09-21T16:34:36.854Z,5.88
2022-09-21T16:37:25.263Z,4.20
2022-09-21T16:39:54.168Z,7.75
2022-09-21T16:42:23.238Z,5.38
2022-09-21T16:44:51.862Z,5.70
2022-09-21T16:47:25.260Z,11.25
2022-09-21T16:49:56.529Z,6.28
2022-09-21T16:52:25.057Z,6.88
2022-09-21T16:54:54.856Z,3.20
2022-09-21T16:57:22.618Z,5.65
2022-09-21T16:59:51.172Z,2.60
2022-09-21T17:02:20.782Z,3.17
2022-09-21T17:04:49.166Z,3.78
2022-09-21T17:07:18.969Z,4.53
2022-09-21T17:09:48.207Z,5.97
2022-09-21T17:12:18.338Z,3.47
2022-09-21T17:14:47.403Z,2.83
2022-09-21T17:17:19.375Z,2.60
2022-09-21T17:19:50.717Z,3.17
2022-09-21T17:22:19.202Z,2.35
2022-09-21T17:24:52.073Z,4.72
2022-09-21T17:27:22.659Z,3.90
2022-09-21T17:29:51.067Z,2.03
2022-09-21T17:32:21.255Z,3.33
2022-09-21T17:34:56.321Z,6.50
2022-09-21T17:37:25.150Z,3.85
2022-09-21T17:39:53.912Z,3.97
2022-09-21T17:42:25.133Z,3.95
2022-09-21T17:45:11.758Z,3.30
2022-09-21T17:47:41.004Z,5.03
2022-09-21T17:50:23.027Z,4.55
2022-09-21T17:53:09.060Z,4.03
2022-09-21T17:55:37.659Z,4.63
2022-09-21T17:58:24.412Z,4.78
2022-09-21T18:01:01.545Z,4.07
2022-09-21T18:03:31.742Z,3.45
2022-09-21T18:06:02.850Z,7.20
2022-09-21T18:08:33.422Z,8.35
2022-09-21T18:11:16.848Z,11.50
2022-09-21T18:13:55.455Z,5.47
2022-09-21T18:16:28.337Z,8.77
2022-09-21T18:19:21.679Z,8.80
2022-09-21T18:21:56.082Z,4.85
2022-09-21T18:24:31.149Z,6.80
2022-09-21T18:27:00.773Z,5.15
2022-09-21T18:29:40.654Z,4.30
2022-09-21T18:32:41.109Z,8.25
2022-09-21T18:35:19.680Z,6.93
2022-09-21T18:38:02.862Z,9.20
2022-09-21T18:40:45.468Z,6.00
2022-09-21T18:43:26.320Z,6.70
2022-09-21T18:46:01.870Z,8.52
2022-09-21T18:48:41.263Z,6.03
2022-09-21T18:51:20.380Z,7.63
2022-09-21T18:53:52.910Z,6.57
2022-09-21T18:56:21.445Z,7.30
2022-09-21T18:58:50.557Z,7.45
2022-09-21T19:01:21.952Z,7.13
2022-09-21T19:03:50.832Z,7.07
2022-09-21T19:06:32.612Z,10.35
2022-09-21T19:09:15.625Z,6.18
2022-09-21T19:11:50.663Z,5.97
2022-09-21T19:14:23.760Z,7.78
2022-09-21T19:17:07.080Z,9.27
2022-09-21T19:19:45.258Z,8.20
2022-09-21T19:22:16.734Z,7.65
2022-09-21T19:24:57.008Z,8.25
2022-09-21T19:27:36.009Z,8.60
2022-09-21T19:30:09.019Z,11.43
2022-09-21T19:32:43.711Z,10.25
2022-09-21T19:35:21.556Z,11.07
2022-09-21T19:37:50.655Z,10.30
2022-09-21T19:40:22.278Z,11.18
2022-09-21T19:43:00.451Z,11.35
2022-09-21T19:45:36.039Z,11.27
2022-09-21T19:48:09.917Z,9.57
2022-09-21T19:50:41.866Z,12.23
2022-09-21T19:53:29.950Z,11.75
2022-09-21T19:56:18.667Z,10.65
2022-09-21T19:59:05.022Z,9.77
2022-09-21T20:01:36.715Z,11.88
2022-09-21T20:04:06.368Z,8.63
2022-09-21T20:06:43.999Z,13.70
2022-09-21T20:09:18.382Z,13.15
2022-09-21T20:11:52.044Z,13.68
2022-09-21T20:14:29.283Z,15.23
2022-09-21T20:17:00.418Z,11.35
2022-09-21T20:19:39.029Z,12.82
2022-09-21T20:22:12.520Z,15.23
2022-09-21T20:24:49.847Z,14.10
2022-09-21T20:27:32.554Z,13.13
2022-09-21T20:30:00.391Z,12.68
2022-09-21T20:32:28.660Z,11.55
2022-09-21T20:34:57.122Z,12.07
2022-09-21T20:37:26.309Z,12.68
2022-09-21T20:39:54.702Z,12.43
2022-09-21T20:42:26.775Z,12.20
2022-09-21T20:44:55.240Z,12.10
2022-09-21T20:47:23.671Z,15.60
2022-09-21T20:49:52.121Z,18.58
2022-09-21T20:52:20.087Z,28.65
2022-09-21T20:54:49.590Z,14.07
2022-09-21T20:57:18.094Z,13.48
2022-09-21T20:59:47.892Z,8.50
2022-09-21T21:02:16.701Z,9.40
2022-09-21T21:04:44.583Z,9.10
2022-09-21T21:07:12.619Z,9.23
2022-09-21T21:09:40.384Z,12.32
2022-09-21T21:12:09.419Z,9.15
2022-09-21T21:14:37.499Z,11.68
2022-09-21T21:17:07.180Z,8.57
2022-09-21T21:19:35.302Z,11.30
2022-09-21T21:22:03.118Z,9.73
2022-09-21T21:24:43.723Z,9.25
2022-09-21T21:27:14.749Z,10.07
2022-09-21T21:29:43.094Z,10.32
2022-09-21T21:32:13.047Z,12.90
2022-09-21T21:34:41.119Z,11.65
2022-09-21T21:37:09.211Z,11.35
2022-09-21T21:39:37.011Z,9.48
2022-09-21T21:42:05.191Z,13.13
2022-09-21T21:44:32.992Z,8.23
2022-09-21T21:47:20.872Z,7.90
2022-09-21T21:49:50.068Z,7.50
2022-09-21T21:52:17.866Z,9.25
2022-09-21T21:54:45.636Z,5.90
2022-09-21T21:57:14.891Z,7.18
2022-09-21T21:59:43.226Z,6.20
2022-09-21T22:02:11.637Z,6.97
2022-09-21T22:04:39.676Z,9.50
2022-09-21T22:07:08.836Z,6.38
2022-09-21T22:09:36.627Z,5.28
2022-09-21T22:12:04.701Z,6.30
2022-09-21T22:14:32.529Z,8.05
2022-09-21T22:17:01.796Z,8.70
2022-09-21T22:19:29.669Z,6.35
2022-09-21T22:21:57.709Z,6.65
2022-09-21T22:24:26.943Z,5.53
2022-09-21T22:26:54.745Z,4.35
2022-09-21T22:29:22.883Z,7.70
2022-09-21T22:31:51.638Z,7.13
2022-09-21T22:34:20.262Z,10.07
